Time;durP1;ratioP1;P1;durP2;ratioP2;P2;SDS_P1;SDS_P2;PMS_P1;PMS_P2;Temp;Humidity;BMP_temperature;BMP_pressure;BME280_temperature;BME280_humidity;BME280_pressure;Samples;Min_cycle;Max_cycle;Signal;HPM_P1;HPM_P2
2023/03/15 00:00:41;;;;;;;;;;;;;;;22.15;25.57;97164.63;4913367;29;1946;-74
2023/03/15 00:03:07;;;;;;;;;;;;;;;22.76;25.23;97142.94;4945604;28;1234;-73
2023/03/15 00:05:32;;;;;;;;;;;;;;;22.84;25.09;97147.03;4940569;28;1016;-74
2023/03/15 00:07:58;;;;;;;;;;;;;;;23.02;24.76;97139.81;4924672;29;1011;-74
2023/03/15 00:10:23;;;;;;;;;;;;;;;22.80;25.08;97135.09;4940214;29;975;-74
2023/03/15 00:12:49;;;;;;;;;;;;;;;22.86;25.15;97133.19;4956208;28;1073;-74
2023/03/15 00:15:15;;;;;;;;;;;;;;;22.32;25.67;97146.06;4923750;28;1906;-74
2023/03/15 00:17:40;;;;;;;;;;;;;;;22.42;25.53;97129.09;4940275;29;1021;-74
2023/03/15 00:20:06;;;;;;;;;;;;;;;23.00;24.52;97125.28;4940257;28;1042;-74
2023/03/15 00:22:32;;;;;;;;;;;;;;;23.56;23.79;97115.34;4940017;29;993;-74
2023/03/15 00:24:57;;;;;;;;;;;;;;;23.59;24.07;97120.06;4954368;28;1220;-74
2023/03/15 00:27:23;;;;;;;;;;;;;;;22.63;25.17;97122.47;4971375;28;981;-74
2023/03/15 00:29:48;;;;;;;;;;;;;;;22.61;25.49;97110.81;4986286;28;1956;-74
2023/03/15 00:32:14;;;;;;;;;;;;;;;23.56;23.92;97115.34;4995928;28;1178;-74
2023/03/15 00:34:39;;;;;;;;;;;;;;;22.90;24.75;97110.38;4963553;28;1303;-74
2023/03/15 00:37:05;;;;;;;;;;;;;;;22.88;24.74;97096.63;4995787;28;1906;-74
2023/03/15 00:39:30;;;;;;;;;;;;;;;22.85;24.62;97100.41;4997156;28;901;-73
2023/03/15 00:41:56;;;;;;;;;;;;;;;22.95;24.74;97094.72;4996771;28;1151;-74
2023/03/15 00:44:23;;;;;;;;;;;;;;;22.90;24.79;97086.84;4993320;28;1857;-74
2023/03/15 00:46:48;;;;;;;;;;;;;;;22.15;25.82;97096.63;4980056;28;1310;-73
2023/03/15 00:49:14;;;;;;;;;;;;;;;22.72;25.15;97079.94;4963767;28;1136;-73
2023/03/15 00:51:40;;;;;;;;;;;;;;;22.55;25.43;97078.69;4995688;28;904;-73
2023/03/15 00:54:05;;;;;;;;;;;;;;;23.41;24.40;97069.81;4975013;28;1260;-74
2023/03/15 00:56:31;;;;;;;;;;;;;;;22.70;25.33;97056.94;4958966;28;1911;-74
2023/03/15 00:58:57;;;;;;;;;;;;;;;22.92;24.89;97061.66;4951490;28;1870;-74
2023/03/15 01:01:23;;;;;;;;;;;;;;;23.14;24.45;97056.53;4926977;29;1676;-74
2023/03/15 01:03:49;;;;;;;;;;;;;;;22.94;24.90;97042.09;4919893;29;1225;-74
2023/03/15 01:06:16;;;;;;;;;;;;;;;22.65;25.22;97045.47;4904828;29;1443;-74
2023/03/15 01:08:42;;;;;;;;;;;;;;;22.84;24.70;97038.47;4920851;29;961;-73
2023/03/15 01:11:09;;;;;;;;;;;;;;;22.26;25.48;97028.94;4904645;29;939;-74
2023/03/15 01:13:35;;;;;;;;;;;;;;;22.38;25.69;97029.25;4904098;29;1942;-73
2023/03/15 01:16:00;;;;;;;;;;;;;;;22.99;24.70;97027.25;4900391;29;1978;-73
2023/03/15 01:18:26;;;;;;;;;;;;;;;22.55;25.17;97022.00;4885965;29;1249;-73
2023/03/15 01:20:52;;;;;;;;;;;;;;;22.65;25.20;97026.41;4901625;29;1357;-74
2023/03/15 01:23:18;;;;;;;;;;;;;;;22.92;24.94;97021.94;4901494;29;1105;-74
2023/03/15 01:25:45;;;;;;;;;;;;;;;22.55;25.11;97022.00;4916489;29;1241;-74
2023/03/15 01:28:11;;;;;;;;;;;;;;;22.87;25.00;97015.63;4904545;29;1123;-74
2023/03/15 01:30:36;;;;;;;;;;;;;;;22.79;25.19;97020.03;4935646;29;1992;-74
2023/03/15 01:33:02;;;;;;;;;;;;;;;22.87;24.81;97015.63;4966142;28;1025;-74
2023/03/15 01:35:27;;;;;;;;;;;;;;;22.98;24.92;97025.69;4958229;28;1898;-73
2023/03/15 01:37:53;;;;;;;;;;;;;;;22.74;25.12;97015.03;4973677;28;2026;-74
2023/03/15 01:40:19;;;;;;;;;;;;;;;22.73;25.07;97004.94;4958373;28;997;-74
2023/03/15 01:42:51;;;;;;;;;;;;;;;22.81;24.90;97009.03;4916799;29;1229;-73
2023/03/15 01:45:36;;;;;;;;;;;;;;;22.56;25.31;97000.88;4901039;29;1099;-74
2023/03/15 01:48:01;;;;;;;;;;;;;;;22.69;25.03;97003.53;4883875;29;1130;-74
2023/03/15 01:50:27;;;;;;;;;;;;;;;22.77;24.86;96997.06;4898013;29;1212;-74
2023/03/15 01:52:53;;;;;;;;;;;;;;;22.75;24.90;97008.09;4897533;29;1696;-74
2023/03/15 01:55:18;;;;;;;;;;;;;;;22.58;25.44;97009.69;4897980;29;1911;-74
2023/03/15 01:58:05;;;;;;;;;;;;;;;22.70;25.02;97000.22;4897720;29;2250;-74
2023/03/15 02:00:33;;;;;;;;;;;;;;;22.74;25.34;97011.38;4885046;29;1687;-74
2023/03/15 02:03:08;;;;;;;;;;;;;;;22.82;24.98;97007.75;4897425;29;1270;-73
2023/03/15 02:05:36;;;;;;;;;;;;;;;22.52;25.59;97003.09;4882226;29;1079;-74
2023/03/15 02:08:04;;;;;;;;;;;;;;;22.95;24.80;97004.75;4882521;29;1146;-74
2023/03/15 02:10:42;;;;;;;;;;;;;;;22.40;25.56;97004.06;4882639;29;1134;-74
2023/03/15 02:13:09;;;;;;;;;;;;;;;22.60;25.59;97007.19;4894317;29;1704;-74
2023/03/15 02:15:35;;;;;;;;;;;;;;;22.83;25.05;96997.97;4931717;29;1891;-74
2023/03/15 02:18:03;;;;;;;;;;;;;;;23.16;24.72;96997.25;4927113;29;1248;-74
2023/03/15 02:20:47;;;;;;;;;;;;;;;23.02;24.69;97009.28;4942094;29;1046;-73
2023/03/15 02:23:14;;;;;;;;;;;;;;;22.75;25.30;96993.13;4958220;29;962;-74
2023/03/15 02:25:39;;;;;;;;;;;;;;;22.74;25.26;97017.88;4926661;29;1180;-74
2023/03/15 02:28:05;;;;;;;;;;;;;;;22.67;24.90;96989.84;4957930;29;1706;-73
2023/03/15 02:30:31;;;;;;;;;;;;;;;22.06;25.96;96991.78;4942441;29;1069;-74
2023/03/15 02:32:57;;;;;;;;;;;;;;;22.61;25.41;96991.75;4958143;29;1149;-73
2023/03/15 02:35:28;;;;;;;;;;;;;;;22.63;25.43;97000.56;4910959;29;1906;-73
2023/03/15 02:37:53;;;;;;;;;;;;;;;22.78;25.15;96995.00;4926260;29;1148;-73
2023/03/15 02:40:20;;;;;;;;;;;;;;;23.31;24.70;96992.47;4934838;28;1148;-74
2023/03/15 02:42:45;;;;;;;;;;;;;;;22.52;25.65;96997.44;4956883;29;1954;-74
2023/03/15 02:45:11;;;;;;;;;;;;;;;23.35;24.56;96995.88;4926305;29;1317;-73
2023/03/15 02:47:36;;;;;;;;;;;;;;;23.36;24.20;96993.84;4942046;29;1051;-74
2023/03/15 02:50:02;;;;;;;;;;;;;;;23.12;24.85;96985.28;4942109;29;1000;-74
2023/03/15 02:52:27;;;;;;;;;;;;;;;23.06;24.72;96987.22;4949548;28;1280;-74
2023/03/15 02:54:53;;;;;;;;;;;;;;;22.91;24.62;96986.34;4978435;28;1524;-74
2023/03/15 02:57:19;;;;;;;;;;;;;;;23.03;24.72;96988.16;4979432;28;1996;-74
2023/03/15 02:59:46;;;;;;;;;;;;;;;22.65;25.41;96986.69;4981891;28;1262;-74
2023/03/15 03:02:12;;;;;;;;;;;;;;;22.69;25.14;96986.50;4982484;28;1139;-74
2023/03/15 03:04:38;;;;;;;;;;;;;;;22.35;25.76;96994.94;4968874;28;1618;-74
2023/03/15 03:07:04;;;;;;;;;;;;;;;22.67;25.36;96992.66;5000763;28;1101;-74
2023/03/15 03:09:37;;;;;;;;;;;;;;;22.79;25.21;96996.56;4985307;28;1315;-73
2023/03/15 03:12:02;;;;;;;;;;;;;;;22.38;25.83;97001.69;4997681;28;1653;-73
2023/03/15 03:14:30;;;;;;;;;;;;;;;22.88;25.09;96990.91;4965330;28;1141;-74
2023/03/15 03:16:56;;;;;;;;;;;;;;;23.09;24.88;97000.44;4965361;28;1914;-74
2023/03/15 03:19:24;;;;;;;;;;;;;;;22.92;25.22;96996.41;4964952;28;1219;-74
2023/03/15 03:21:52;;;;;;;;;;;;;;;22.96;24.85;96994.97;4981119;28;1065;-74
2023/03/15 03:24:18;;;;;;;;;;;;;;;22.92;25.15;96993.56;4960550;28;1206;-75
2023/03/15 03:26:47;;;;;;;;;;;;;;;23.24;24.30;96995.63;4976116;28;2104;-74
2023/03/15 03:29:15;;;;;;;;;;;;;;;23.05;24.91;96997.78;4962274;28;1496;-74
2023/03/15 03:31:42;;;;;;;;;;;;;;;23.09;24.93;96992.69;4960282;28;1592;-74
2023/03/15 03:34:09;;;;;;;;;;;;;;;23.19;24.61;96993.44;4941246;29;1289;-74
2023/03/15 03:36:35;;;;;;;;;;;;;;;23.18;24.28;96989.03;4925241;29;1966;-74
2023/03/15 03:39:01;;;;;;;;;;;;;;;23.00;24.56;96975.75;4925214;29;1109;-74
2023/03/15 03:41:26;;;;;;;;;;;;;;;22.96;25.05;96982.84;4954758;28;1994;-74
2023/03/15 03:43:52;;;;;;;;;;;;;;;23.07;24.64;96974.59;4906818;28;1669;-74
2023/03/15 03:46:20;;;;;;;;;;;;;;;22.81;25.23;96983.50;4903080;29;1140;-73
2023/03/15 03:48:50;;;;;;;;;;;;;;;22.87;25.19;96975.91;4918997;29;1469;-73
2023/03/15 03:51:15;;;;;;;;;;;;;;;22.88;24.86;96988.06;4886927;29;1340;-74
2023/03/15 03:53:41;;;;;;;;;;;;;;;22.43;25.97;96986.88;4901607;29;1697;-74
2023/03/15 03:56:07;;;;;;;;;;;;;;;22.57;25.66;96979.78;4902531;29;1899;-74
2023/03/15 03:58:34;;;;;;;;;;;;;;;22.18;26.17;96990.88;4883925;29;1156;-74
2023/03/15 04:01:14;;;;;;;;;;;;;;;23.13;24.99;96998.22;4883937;29;1303;-73
2023/03/15 04:03:40;;;;;;;;;;;;;;;22.69;25.26;96995.84;4900817;29;1282;-73
2023/03/15 04:06:10;;;;;;;;;;;;;;;23.38;24.60;96985.63;4921583;29;1684;-73
2023/03/15 04:08:42;;;;;;;;;;;;;;;22.80;25.26;96987.59;4919944;29;1888;-74
2023/03/15 04:11:16;;;;;;;;;;;;;;;23.40;24.46;96983.88;4917792;29;1100;-74
2023/03/15 04:13:43;;;;;;;;;;;;;;;22.64;25.23;96979.47;4918194;29;1224;-74
2023/03/15 04:16:09;;;;;;;;;;;;;;;22.91;25.12;96972.94;4902947;29;1981;-74
2023/03/15 04:18:49;;;;;;;;;;;;;;;22.90;24.74;96973.38;4921302;29;1595;-74
2023/03/15 04:21:15;;;;;;;;;;;;;;;23.06;25.01;96970.97;4921256;29;1587;-74
2023/03/15 04:23:44;;;;;;;;;;;;;;;23.05;24.77;96963.75;4940211;29;1511;-74
2023/03/15 04:26:29;;;;;;;;;;;;;;;22.89;25.15;96961.25;4929610;29;1020;-74
2023/03/15 04:29:15;;;;;;;;;;;;;;;22.93;25.22;96972.44;4955850;29;1009;-74
2023/03/15 04:32:04;;;;;;;;;;;;;;;22.93;24.98;96975.28;4939654;29;1329;-74
2023/03/15 04:34:50;;;;;;;;;;;;;;;22.66;25.60;96985.44;4924017;29;978;-74
2023/03/15 04:37:26;;;;;;;;;;;;;;;22.99;25.00;96981.88;4917814;29;2075;-74
2023/03/15 04:40:07;;;;;;;;;;;;;;;23.06;25.02;96970.97;4954851;28;1129;-74
2023/03/15 04:42:57;;;;;;;;;;;;;;;23.47;24.28;96976.28;4942946;29;961;-74
2023/03/15 04:45:45;;;;;;;;;;;;;;;23.02;24.92;96969.56;4955642;28;1043;-74
2023/03/15 04:48:20;;;;;;;;;;;;;;;22.86;25.22;96968.66;4940947;29;1009;-74
2023/03/15 04:51:18;;;;;;;;;;;;;;;23.11;25.07;96967.50;4916419;29;2091;-74
2023/03/15 04:53:54;;;;;;;;;;;;;;;22.69;25.39;96964.63;4886244;29;1884;-74
2023/03/15 04:56:43;;;;;;;;;;;;;;;23.00;24.72;96978.56;4889299;29;2008;-73
2023/03/15 04:59:17;;;;;;;;;;;;;;;22.96;24.83;96977.97;4898592;29;1256;-74
2023/03/15 05:01:54;;;;;;;;;;;;;;;23.00;24.96;96967.22;4898714;29;1145;-74
2023/03/15 05:04:32;;;;;;;;;;;;;;;22.85;25.37;96967.09;4884618;29;1118;-73
2023/03/15 05:07:15;;;;;;;;;;;;;;;22.85;25.00;96972.78;4869660;29;1166;-74
2023/03/15 05:09:59;;;;;;;;;;;;;;;22.93;25.27;96961.88;4885206;29;1032;-74
2023/03/15 05:13:03;;;;;;;;;;;;;;;22.70;25.48;96971.88;4854160;29;1062;-74
2023/03/15 05:15:48;;;;;;;;;;;;;;;22.01;26.54;96973.38;4855271;29;1903;-74
2023/03/15 05:18:40;;;;;;;;;;;;;;;22.58;25.69;96959.44;4824542;29;1026;-74
2023/03/15 05:21:12;;;;;;;;;;;;;;;23.17;24.94;96947.75;4824488;29;1063;-74
2023/03/15 05:23:50;;;;;;;;;;;;;;;22.41;26.02;96943.28;4824417;29;1257;-74
2023/03/15 05:26:30;;;;;;;;;;;;;;;21.97;26.46;96946.47;4837845;29;1289;-74
2023/03/15 05:29:14;;;;;;;;;;;;;;;22.99;25.08;96940.09;4837216;29;1005;-74
2023/03/15 05:32:06;;;;;;;;;;;;;;;23.16;24.86;96940.50;4842279;29;1037;-74
2023/03/15 05:34:49;;;;;;;;;;;;;;;23.01;24.93;96945.31;4832096;29;1176;-74
2023/03/15 05:37:25;;;;;;;;;;;;;;;22.75;25.16;96947.75;4845519;29;1982;-74
2023/03/15 05:40:10;;;;;;;;;;;;;;;22.83;24.98;96937.63;4860985;29;1159;-73
2023/03/15 05:42:49;;;;;;;;;;;;;;;22.91;25.20;96935.28;4843968;29;1132;-73
2023/03/15 05:45:24;;;;;;;;;;;;;;;22.93;25.13;96938.41;4810216;29;937;-73
2023/03/15 05:47:49;;;;;;;;;;;;;;;22.55;25.72;96931.28;4824009;29;948;-74
2023/03/15 05:50:27;;;;;;;;;;;;;;;22.78;25.43;96922.03;4811339;29;1192;-73
2023/03/15 05:53:11;;;;;;;;;;;;;;;22.58;25.69;96918.97;4827716;29;892;-73
2023/03/15 05:56:02;;;;;;;;;;;;;;;22.76;25.36;96924.59;4836023;29;1971;-73
2023/03/15 05:58:37;;;;;;;;;;;;;;;22.73;25.37;96922.69;4831869;29;1004;-75
2023/03/15 06:01:21;;;;;;;;;;;;;;;22.49;25.80;96922.63;4846025;29;1129;-75
2023/03/15 06:04:06;;;;;;;;;;;;;;;23.35;24.67;96919.25;4825353;29;1407;-75
2023/03/15 06:06:33;;;;;;;;;;;;;;;23.21;24.60;96922.81;4864272;29;1123;-75
2023/03/15 06:08:58;;;;;;;;;;;;;;;22.46;25.65;96912.25;4884365;29;1137;-75
2023/03/15 06:11:24;;;;;;;;;;;;;;;23.03;25.29;96911.56;4897328;29;940;-75
2023/03/15 06:13:50;;;;;;;;;;;;;;;22.82;25.41;96905.66;4905018;29;956;-75
2023/03/15 06:16:31;;;;;;;;;;;;;;;23.00;25.36;96898.34;4936348;29;1907;-75
2023/03/15 06:18:59;;;;;;;;;;;;;;;22.75;25.20;96889.00;4936342;29;1160;-75
2023/03/15 06:21:24;;;;;;;;;;;;;;;23.13;24.63;96896.06;4920432;29;1180;-75
2023/03/15 06:23:50;;;;;;;;;;;;;;;22.84;24.96;96879.63;4920555;29;951;-75
2023/03/15 06:26:18;;;;;;;;;;;;;;;22.96;24.86;96886.41;4936179;29;1195;-75
2023/03/15 06:28:45;;;;;;;;;;;;;;;22.77;25.50;96882.84;4920389;29;1244;-75
2023/03/15 06:31:11;;;;;;;;;;;;;;;23.05;24.90;96877.81;4866901;29;1187;-75
2023/03/15 06:33:46;;;;;;;;;;;;;;;22.67;25.36;96881.31;4921100;29;1135;-74
2023/03/15 06:36:13;;;;;;;;;;;;;;;22.92;25.45;96885.78;4942401;29;1983;-75
2023/03/15 06:38:40;;;;;;;;;;;;;;;22.42;26.11;96876.81;4926546;29;1119;-74
2023/03/15 06:41:07;;;;;;;;;;;;;;;22.06;26.18;96873.59;4910882;29;1100;-75
2023/03/15 06:43:34;;;;;;;;;;;;;;;22.77;25.73;96877.16;4926529;29;1474;-75
2023/03/15 06:46:00;;;;;;;;;;;;;;;23.03;24.92;96880.34;4926289;29;1592;-74
2023/03/15 06:48:26;;;;;;;;;;;;;;;22.98;25.34;96883.84;4926358;29;1110;-75
2023/03/15 06:50:52;;;;;;;;;;;;;;;22.96;25.30;96887.19;4935489;29;1091;-74
2023/03/15 06:53:17;;;;;;;;;;;;;;;23.10;24.94;96874.31;4900721;29;1121;-75
2023/03/15 06:55:43;;;;;;;;;;;;;;;23.16;24.87;96882.94;4900821;29;1907;-74
2023/03/15 06:58:09;;;;;;;;;;;;;;;22.88;25.27;96878.22;4900568;29;965;-74
2023/03/15 07:00:35;;;;;;;;;;;;;;;23.12;24.83;96868.97;4900655;29;975;-75
2023/03/15 07:03:00;;;;;;;;;;;;;;;22.99;25.05;96868.41;4948282;28;1316;-75
2023/03/15 07:05:26;;;;;;;;;;;;;;;23.09;24.75;96872.75;4958189;29;1002;-75
2023/03/15 07:07:51;;;;;;;;;;;;;;;23.05;24.93;96872.13;4957551;29;925;-75
2023/03/15 07:10:17;;;;;;;;;;;;;;;22.91;25.34;96879.31;4941707;29;972;-75
2023/03/15 07:12:43;;;;;;;;;;;;;;;23.06;25.28;96885.09;4957502;29;1120;-74
2023/03/15 07:15:08;;;;;;;;;;;;;;;22.91;25.11;96885.00;4957418;29;1013;-75
2023/03/15 07:17:34;;;;;;;;;;;;;;;22.70;25.33;96883.97;4941562;29;1977;-74
2023/03/15 07:19:59;;;;;;;;;;;;;;;22.97;25.13;96882.28;4941777;29;943;-75
2023/03/15 07:22:25;;;;;;;;;;;;;;;22.62;25.74;96896.91;4957645;29;1452;-75
2023/03/15 07:24:51;;;;;;;;;;;;;;;22.87;25.42;96890.03;4985020;28;862;-75
2023/03/15 07:27:16;;;;;;;;;;;;;;;22.82;25.33;96899.97;5000387;28;1138;-75
2023/03/15 07:29:42;;;;;;;;;;;;;;;23.34;24.55;96892.13;5000797;28;839;-74
2023/03/15 07:32:07;;;;;;;;;;;;;;;23.01;25.35;96895.03;5000853;28;1066;-75
2023/03/15 07:34:33;;;;;;;;;;;;;;;23.28;24.70;96893.28;5018093;28;912;-75
2023/03/15 07:36:58;;;;;;;;;;;;;;;23.25;24.82;96891.41;5017689;28;1969;-75
2023/03/15 07:39:25;;;;;;;;;;;;;;;23.08;24.94;96894.66;5017630;28;931;-75
2023/03/15 07:41:54;;;;;;;;;;;;;;;23.39;24.54;96885.00;5000367;28;1002;-75
2023/03/15 07:44:28;;;;;;;;;;;;;;;23.24;24.83;96901.97;5001432;28;1053;-75
2023/03/15 07:46:54;;;;;;;;;;;;;;;22.53;25.48;96900.56;4984076;28;1543;-74
2023/03/15 07:49:20;;;;;;;;;;;;;;;22.69;25.55;96905.09;5000232;28;1527;-74
2023/03/15 07:51:45;;;;;;;;;;;;;;;22.92;25.18;96900.75;4999997;28;951;-75
2023/03/15 07:54:11;;;;;;;;;;;;;;;22.24;26.14;96901.13;5017622;28;895;-74
2023/03/15 07:56:36;;;;;;;;;;;;;;;22.68;25.62;96895.00;4998827;28;1973;-74
2023/03/15 07:59:02;;;;;;;;;;;;;;;21.99;26.61;96899.41;5017466;28;904;-75
2023/03/15 08:01:27;;;;;;;;;;;;;;;22.78;25.19;96888.00;4979090;28;1229;-75
2023/03/15 08:03:53;;;;;;;;;;;;;;;22.03;26.44;96890.75;4979095;28;1268;-75
2023/03/15 08:06:18;;;;;;;;;;;;;;;22.65;25.63;96895.97;4962934;28;1008;-75
2023/03/15 08:08:44;;;;;;;;;;;;;;;22.94;25.24;96898.22;4979133;28;1212;-74
2023/03/15 08:11:09;;;;;;;;;;;;;;;23.11;25.02;96890.09;4978920;28;1435;-73
2023/03/15 08:13:35;;;;;;;;;;;;;;;23.11;25.00;96888.03;4978657;28;1386;-74
2023/03/15 08:16:01;;;;;;;;;;;;;;;23.30;25.00;96900.03;4946849;28;1903;-74
2023/03/15 08:18:29;;;;;;;;;;;;;;;22.96;25.34;96892.84;4940302;29;1165;-74
2023/03/15 08:20:58;;;;;;;;;;;;;;;22.10;26.41;96896.09;4940793;29;999;-74
2023/03/15 08:23:23;;;;;;;;;;;;;;;22.70;25.29;96898.16;4924314;29;1203;-74
2023/03/15 08:25:49;;;;;;;;;;;;;;;22.54;25.89;96884.34;4924039;29;1156;-74
2023/03/15 08:28:14;;;;;;;;;;;;;;;22.96;25.24;96881.50;4939796;29;1025;-74
2023/03/15 08:30:40;;;;;;;;;;;;;;;23.03;25.11;96892.50;4940253;29;967;-73
2023/03/15 08:33:06;;;;;;;;;;;;;;;22.43;25.86;96886.91;4938555;28;1033;-74
2023/03/15 08:35:33;;;;;;;;;;;;;;;22.71;25.78;96898.94;4974894;28;1988;-74
2023/03/15 08:37:59;;;;;;;;;;;;;;;22.74;25.78;96892.28;4958993;28;1236;-73
2023/03/15 08:40:24;;;;;;;;;;;;;;;23.04;25.04;96887.59;4975055;28;935;-74
2023/03/15 08:42:50;;;;;;;;;;;;;;;22.63;25.64;96887.91;4975056;28;933;-73
2023/03/15 08:45:16;;;;;;;;;;;;;;;22.46;26.10;96891.63;4974925;28;902;-74
2023/03/15 08:47:42;;;;;;;;;;;;;;;23.04;25.28;96890.44;4958734;28;1086;-74
2023/03/15 08:50:09;;;;;;;;;;;;;;;23.27;25.11;96888.88;4994525;28;912;-74
2023/03/15 08:52:35;;;;;;;;;;;;;;;23.09;25.03;96879.22;4999131;28;991;-74
2023/03/15 08:55:00;;;;;;;;;;;;;;;22.77;25.32;96883.63;4999231;28;998;-75
2023/03/15 08:57:27;;;;;;;;;;;;;;;22.67;25.45;96882.09;4982537;28;1906;-75
2023/03/15 08:59:53;;;;;;;;;;;;;;;22.87;25.10;96884.34;4981304;28;965;-75
2023/03/15 09:02:19;;;;;;;;;;;;;;;22.82;25.25;96882.97;5015771;28;1235;-74
2023/03/15 09:04:44;;;;;;;;;;;;;;;22.65;25.63;96881.78;4998914;28;949;-75
2023/03/15 09:07:11;;;;;;;;;;;;;;;22.83;25.29;96878.84;4998485;28;957;-75
2023/03/15 09:09:37;;;;;;;;;;;;;;;22.94;25.47;96874.72;5015997;28;962;-75
2023/03/15 09:12:02;;;;;;;;;;;;;;;23.10;25.00;96862.97;4998489;28;1037;-75
2023/03/15 09:14:28;;;;;;;;;;;;;;;22.34;26.36;96871.50;4998399;28;939;-75
2023/03/15 09:16:53;;;;;;;;;;;;;;;23.03;25.29;96864.13;4997525;28;1981;-75
2023/03/15 09:19:19;;;;;;;;;;;;;;;22.83;25.40;96867.50;4998676;28;1139;-74
2023/03/15 09:21:46;;;;;;;;;;;;;;;23.19;25.06;96862.91;4982066;28;997;-75
2023/03/15 09:24:11;;;;;;;;;;;;;;;23.39;24.89;96856.63;4998427;28;1219;-75
2023/03/15 09:26:37;;;;;;;;;;;;;;;23.31;24.92;96856.22;4997887;28;929;-75
2023/03/15 09:29:03;;;;;;;;;;;;;;;22.92;25.20;96851.75;4981939;28;892;-75
2023/03/15 09:31:28;;;;;;;;;;;;;;;22.88;25.05;96852.69;4942146;28;1199;-75
2023/03/15 09:33:55;;;;;;;;;;;;;;;22.86;25.30;96843.88;4974206;28;962;-75
2023/03/15 09:36:21;;;;;;;;;;;;;;;23.01;25.05;96848.88;4958109;28;1910;-75
2023/03/15 09:38:46;;;;;;;;;;;;;;;22.45;26.08;96841.88;4958392;28;1222;-74
2023/03/15 09:41:19;;;;;;;;;;;;;;;22.42;26.00;96839.97;4958398;28;940;-75
2023/03/15 09:43:51;;;;;;;;;;;;;;;22.64;25.75;96843.38;4919466;29;1011;-74
2023/03/15 09:46:16;;;;;;;;;;;;;;;23.06;25.20;96851.03;4919996;29;1802;-75
2023/03/15 09:49:00;;;;;;;;;;;;;;;23.40;24.72;96846.84;4935636;29;1023;-75
2023/03/15 09:51:41;;;;;;;;;;;;;;;22.96;25.53;96841.00;4935903;29;975;-75
2023/03/15 09:54:09;;;;;;;;;;;;;;;22.53;25.85;96848.75;4935718;29;1029;-74
2023/03/15 09:56:40;;;;;;;;;;;;;;;22.51;26.10;96842.78;4935393;29;1898;-75
2023/03/15 09:59:06;;;;;;;;;;;;;;;22.99;25.09;96842.88;4935702;29;970;-74
2023/03/15 10:01:34;;;;;;;;;;;;;;;22.76;25.12;96836.69;4924154;28;1212;-75
2023/03/15 10:04:01;;;;;;;;;;;;;;;22.94;25.28;96837.84;4957789;28;1036;-74
2023/03/15 10:06:33;;;;;;;;;;;;;;;23.09;24.92;96833.81;4958010;28;1051;-74
2023/03/15 10:09:02;;;;;;;;;;;;;;;22.27;26.25;96832.16;4942393;28;1050;-74
2023/03/15 10:11:34;;;;;;;;;;;;;;;22.93;25.33;96831.41;4957971;28;1202;-75
2023/03/15 10:13:59;;;;;;;;;;;;;;;22.63;25.71;96827.59;4965551;28;1119;-75
2023/03/15 10:16:25;;;;;;;;;;;;;;;22.71;25.97;96825.22;4996889;28;1979;-75
2023/03/15 10:19:02;;;;;;;;;;;;;;;22.77;25.65;96824.06;5015647;28;903;-75
2023/03/15 10:21:27;;;;;;;;;;;;;;;22.51;25.92;96828.59;4997997;28;932;-75
2023/03/15 10:23:53;;;;;;;;;;;;;;;23.10;25.12;96811.88;4981556;28;1053;-75
2023/03/15 10:26:21;;;;;;;;;;;;;;;23.24;25.14;96816.84;4980662;28;1173;-75
2023/03/15 10:28:47;;;;;;;;;;;;;;;23.27;25.19;96810.22;4997516;28;950;-74
2023/03/15 10:31:14;;;;;;;;;;;;;;;22.77;25.92;96807.03;5015418;28;992;-74
2023/03/15 10:33:40;;;;;;;;;;;;;;;23.18;25.32;96803.81;4993060;28;1183;-75
2023/03/15 10:36:18;;;;;;;;;;;;;;;22.69;25.58;96800.19;4977264;28;1922;-74
2023/03/15 10:38:44;;;;;;;;;;;;;;;23.16;24.90;96795.78;4996600;28;973;-74
2023/03/15 10:41:10;;;;;;;;;;;;;;;23.17;24.91;96794.53;4996900;28;1119;-75
2023/03/15 10:43:36;;;;;;;;;;;;;;;22.98;25.05;96793.84;4980332;28;1243;-74
2023/03/15 10:46:03;;;;;;;;;;;;;;;22.68;25.59;96787.25;4964481;28;1263;-74
2023/03/15 10:48:32;;;;;;;;;;;;;;;23.00;25.48;96782.03;4996441;28;1358;-74
2023/03/15 10:51:05;;;;;;;;;;;;;;;22.96;25.29;96772.94;4996538;28;1004;-75
2023/03/15 10:53:30;;;;;;;;;;;;;;;22.79;25.55;96766.84;4996313;28;1004;-75
2023/03/15 10:56:00;;;;;;;;;;;;;;;22.43;26.46;96770.69;4996186;28;1906;-75
2023/03/15 10:58:49;;;;;;;;;;;;;;;23.15;25.14;96768.66;4996630;28;918;-75
2023/03/15 11:01:27;;;;;;;;;;;;;;;22.74;25.69;96771.16;4957476;28;991;-74
2023/03/15 11:04:11;;;;;;;;;;;;;;;22.80;26.03;96766.38;4925456;28;1149;-75
2023/03/15 11:06:51;;;;;;;;;;;;;;;22.33;26.25;96772.81;4941424;29;1167;-74
2023/03/15 11:09:17;;;;;;;;;;;;;;;22.99;25.63;96761.38;4941246;28;1311;-75
2023/03/15 11:11:49;;;;;;;;;;;;;;;22.99;25.58;96755.72;4941421;28;1025;-74
2023/03/15 11:14:14;;;;;;;;;;;;;;;22.26;26.61;96758.97;4957281;28;979;-75
2023/03/15 11:16:40;;;;;;;;;;;;;;;22.61;25.90;96750.75;4909605;29;1922;-75
2023/03/15 11:19:10;;;;;;;;;;;;;;;23.01;25.43;96753.19;4941557;29;961;-75
2023/03/15 11:21:36;;;;;;;;;;;;;;;23.04;25.15;96757.09;4941052;29;1123;-75
2023/03/15 11:24:03;;;;;;;;;;;;;;;22.96;25.33;96753.84;4941235;29;1018;-75
2023/03/15 11:26:32;;;;;;;;;;;;;;;23.16;24.86;96755.25;4941353;28;1229;-75
2023/03/15 11:29:10;;;;;;;;;;;;;;;22.91;25.32;96748.06;4925378;29;1052;-75
2023/03/15 11:31:36;;;;;;;;;;;;;;;22.68;25.82;96744.72;4941284;28;988;-74
2023/03/15 11:34:04;;;;;;;;;;;;;;;22.63;26.12;96740.50;4925336;29;1359;-75
2023/03/15 11:36:30;;;;;;;;;;;;;;;22.35;26.67;96742.72;4941159;28;1969;-75
2023/03/15 11:38:56;;;;;;;;;;;;;;;22.63;26.39;96745.38;5004734;28;1048;-75
2023/03/15 11:41:28;;;;;;;;;;;;;;;22.49;26.01;96746.13;4983583;28;1486;-75
2023/03/15 11:43:59;;;;;;;;;;;;;;;23.26;24.90;96746.22;5000044;28;1174;-75
2023/03/15 11:46:29;;;;;;;;;;;;;;;23.35;24.87;96737.59;4983809;28;1106;-74
2023/03/15 11:49:13;;;;;;;;;;;;;;;22.83;25.76;96722.88;4983326;28;1624;-74
2023/03/15 11:51:39;;;;;;;;;;;;;;;23.60;24.58;96724.09;4999916;28;1052;-75
2023/03/15 11:54:14;;;;;;;;;;;;;;;22.57;25.90;96714.06;4959640;28;1149;-75
2023/03/15 11:56:42;;;;;;;;;;;;;;;22.79;25.85;96725.09;4959626;28;1972;-75
2023/03/15 11:59:11;;;;;;;;;;;;;;;22.99;25.38;96733.00;4975971;28;921;-75
2023/03/15 12:01:48;;;;;;;;;;;;;;;23.00;25.21;96728.13;4959573;28;937;-74
2023/03/15 12:04:32;;;;;;;;;;;;;;;22.88;25.30;96727.91;4975533;28;1198;-75
2023/03/15 12:06:59;;;;;;;;;;;;;;;22.84;25.47;96732.94;4975552;28;1121;-75
2023/03/15 12:09:36;;;;;;;;;;;;;;;22.84;25.75;96732.16;4959789;28;999;-75
2023/03/15 12:12:03;;;;;;;;;;;;;;;22.87;25.89;96737.66;4975496;28;992;-75
2023/03/15 12:14:29;;;;;;;;;;;;;;;22.83;25.58;96731.38;4975435;28;1013;-74
2023/03/15 12:17:14;;;;;;;;;;;;;;;22.68;26.12;96744.72;4975377;28;1984;-75
2023/03/15 12:19:40;;;;;;;;;;;;;;;22.78;25.77;96740.53;4917814;29;1023;-75
2023/03/15 12:22:10;;;;;;;;;;;;;;;22.96;25.79;96751.03;4918110;29;969;-75
2023/03/15 12:24:36;;;;;;;;;;;;;;;23.13;25.53;96742.84;4913702;29;1035;-75
2023/03/15 12:27:02;;;;;;;;;;;;;;;22.81;25.83;96744.47;4924102;29;939;-74
2023/03/15 12:29:28;;;;;;;;;;;;;;;22.91;25.80;96743.19;4939739;29;991;-75
2023/03/15 12:31:55;;;;;;;;;;;;;;;22.62;25.90;96746.66;4939946;29;1331;-74
2023/03/15 12:34:28;;;;;;;;;;;;;;;22.59;26.22;96744.78;4939971;29;1037;-75
2023/03/15 12:37:00;;;;;;;;;;;;;;;23.25;25.42;96743.84;4939695;29;1907;-75
2023/03/15 12:39:37;;;;;;;;;;;;;;;23.20;25.43;96748.13;4924287;29;984;-75
2023/03/15 12:42:02;;;;;;;;;;;;;;;22.74;25.92;96742.81;4939438;29;1829;-75
2023/03/15 12:44:31;;;;;;;;;;;;;;;22.92;25.58;96741.91;4939627;29;897;-75
2023/03/15 12:46:57;;;;;;;;;;;;;;;23.10;25.08;96749.47;4939707;29;1197;-75
2023/03/15 12:49:23;;;;;;;;;;;;;;;22.72;25.75;96748.16;4939625;29;1034;-75
2023/03/15 12:51:57;;;;;;;;;;;;;;;22.79;25.72;96747.00;4955352;29;938;-75
2023/03/15 12:54:23;;;;;;;;;;;;;;;22.92;25.73;96733.41;4955637;29;919;-75
2023/03/15 12:56:53;;;;;;;;;;;;;;;22.69;25.99;96749.13;4970562;28;1906;-75
2023/03/15 12:59:22;;;;;;;;;;;;;;;22.68;26.00;96743.94;4982439;28;992;-75
2023/03/15 13:01:48;;;;;;;;;;;;;;;22.61;25.93;96743.03;4974033;28;1009;-74
2023/03/15 13:04:13;;;;;;;;;;;;;;;22.80;25.78;96743.69;4958170;28;1302;-75
2023/03/15 13:06:47;;;;;;;;;;;;;;;23.21;25.46;96755.41;4974924;28;972;-75
2023/03/15 13:09:22;;;;;;;;;;;;;;;22.67;26.31;96745.97;4958649;28;1092;-75
2023/03/15 13:12:07;;;;;;;;;;;;;;;23.05;25.83;96747.31;4974580;28;879;-75